createdAt,value
2019-02-27T00:00:20.323Z,93.30
2019-02-27T00:02:48.972Z,93.60
2019-02-27T00:05:17.624Z,93.50
2019-02-27T00:07:46.278Z,93.40
2019-02-27T00:10:15.198Z,93.40
2019-02-27T00:12:43.856Z,93.50
2019-02-27T00:15:12.629Z,93.60
2019-02-27T00:17:41.304Z,93.30
2019-02-27T00:20:09.958Z,93.00
2019-02-27T00:22:38.609Z,93.10
2019-02-27T00:25:07.803Z,93.40
2019-02-27T00:27:36.460Z,93.40
2019-02-27T00:30:09.061Z,93.50
2019-02-27T00:32:37.664Z,93.60
2019-02-27T00:35:07.367Z,93.40
2019-02-27T00:37:36.163Z,93.40
2019-02-27T00:40:06.304Z,93.10
2019-02-27T00:42:35.992Z,93.00
2019-02-27T00:45:07.971Z,93.00
2019-02-27T00:47:36.626Z,92.80
2019-02-27T00:50:08.238Z,92.70
2019-02-27T00:52:36.889Z,92.50
2019-02-27T00:55:07.972Z,92.70
2019-02-27T00:57:36.572Z,92.70
2019-02-27T01:00:13.640Z,92.70
2019-02-27T01:02:42.377Z,92.40
2019-02-27T01:05:11.475Z,92.40
2019-02-27T01:07:40.295Z,92.50
2019-02-27T01:10:12.387Z,92.20
2019-02-27T01:12:41.716Z,92.30
2019-02-27T01:15:13.392Z,92.30
2019-02-27T01:17:42.546Z,92.10
2019-02-27T01:20:14.566Z,92.20
2019-02-27T01:22:43.230Z,92.30
2019-02-27T01:25:12.173Z,92.50
2019-02-27T01:27:40.834Z,92.40
2019-02-27T01:30:16.357Z,92.60
2019-02-27T01:32:45.048Z,92.90
2019-02-27T01:35:17.699Z,93.20
2019-02-27T01:37:44.565Z,92.80
2019-02-27T01:40:17.770Z,92.80
2019-02-27T01:42:45.321Z,93.10
2019-02-27T01:45:20.774Z,92.90
2019-02-27T01:47:46.170Z,93.00
2019-02-27T01:50:31.211Z,92.90
2019-02-27T01:53:00.239Z,93.20
2019-02-27T01:55:29.023Z,93.20
2019-02-27T01:57:57.634Z,93.40
2019-02-27T02:00:26.603Z,93.70
2019-02-27T02:02:55.255Z,93.40
2019-02-27T02:05:27.177Z,93.50
2019-02-27T02:07:55.616Z,93.60
2019-02-27T02:10:28.072Z,93.30
2019-02-27T02:13:04.870Z,93.50
2019-02-27T02:16:14.586Z,93.50
2019-02-27T02:19:02.925Z,93.40
2019-02-27T02:22:00.411Z,92.90
2019-02-27T02:25:11.715Z,92.90
2019-02-27T02:28:05.796Z,92.90
2019-02-27T02:30:51.680Z,92.80
2019-02-27T02:33:53.027Z,92.60
2019-02-27T02:36:52.029Z,92.70
2019-02-27T02:39:54.689Z,93.30
2019-02-27T02:42:52.699Z,93.00
2019-02-27T02:45:32.815Z,93.20
2019-02-27T02:48:38.368Z,93.40
2019-02-27T02:51:44.945Z,93.10
2019-02-27T02:54:18.278Z,93.60
2019-02-27T02:57:20.280Z,94.20
2019-02-27T03:00:12.770Z,94.80
2019-02-27T03:03:22.488Z,94.70
2019-02-27T03:06:01.991Z,94.70
2019-02-27T03:08:44.090Z,94.60
2019-02-27T03:11:44.490Z,94.80
2019-02-27T03:14:26.417Z,95.10
2019-02-27T03:17:08.563Z,95.10
2019-02-27T03:19:44.863Z,95.40
2019-02-27T03:22:33.197Z,95.30
2019-02-27T03:25:30.285Z,95.60
2019-02-27T03:28:32.278Z,95.50
2019-02-27T03:31:18.093Z,95.40
2019-02-27T03:34:12.919Z,95.50
2019-02-27T03:36:55.086Z,95.50
2019-02-27T03:40:00.233Z,95.40
2019-02-27T03:42:54.359Z,95.70
2019-02-27T03:45:38.911Z,95.40
2019-02-27T03:48:20.779Z,95.50
2019-02-27T03:51:36.664Z,95.80
2019-02-27T03:54:21.367Z,95.60
2019-02-27T03:57:26.606Z,95.70
2019-02-27T04:00:35.971Z,95.30
2019-02-27T04:03:25.737Z,95.20
2019-02-27T04:06:19.751Z,95.20
2019-02-27T04:08:57.186Z,95.10
2019-02-27T04:11:26.234Z,94.90
2019-02-27T04:13:55.042Z,95.20
2019-02-27T04:16:28.831Z,95.50
2019-02-27T04:18:54.186Z,95.60
2019-02-27T04:21:25.342Z,95.60
2019-02-27T04:23:53.383Z,95.40
2019-02-27T04:26:21.988Z,95.10
2019-02-27T04:28:50.641Z,95.10
2019-02-27T04:31:19.242Z,95.30
2019-02-27T04:33:47.939Z,95.40
2019-02-27T04:36:16.587Z,95.40
2019-02-27T04:38:45.311Z,95.40
2019-02-27T04:41:17.843Z,95.30
2019-02-27T04:43:44.299Z,95.40
2019-02-27T04:46:12.899Z,95.30
2019-02-27T04:48:41.546Z,95.60
2019-02-27T04:51:10.147Z,95.50
2019-02-27T04:53:40.708Z,95.40
2019-02-27T04:56:09.144Z,95.30
2019-02-27T04:58:37.748Z,95.60
2019-02-27T05:01:06.455Z,95.60
2019-02-27T05:03:35.059Z,95.70
2019-02-27T05:06:03.718Z,95.60
2019-02-27T05:08:32.363Z,95.40
2019-02-27T05:11:00.968Z,95.50
2019-02-27T05:13:29.622Z,95.50
2019-02-27T05:15:58.273Z,95.20
2019-02-27T05:18:29.295Z,95.00
2019-02-27T05:20:57.252Z,95.00
2019-02-27T05:23:25.856Z,95.10
2019-02-27T05:25:54.510Z,94.80
2019-02-27T05:28:23.117Z,95.00
2019-02-27T05:30:51.842Z,94.80
2019-02-27T05:33:20.494Z,94.80
2019-02-27T05:35:49.157Z,95.20
2019-02-27T05:38:17.760Z,94.90
2019-02-27T05:40:46.368Z,95.10
2019-02-27T05:43:15.023Z,95.10
2019-02-27T05:45:43.692Z,95.10
2019-02-27T05:48:12.347Z,95.20
2019-02-27T05:50:40.998Z,95.20
2019-02-27T05:53:10.590Z,95.20
2019-02-27T05:55:39.805Z,95.20
2019-02-27T05:58:08.577Z,95.00
2019-02-27T06:00:37.186Z,95.30
2019-02-27T06:03:05.795Z,95.40
2019-02-27T06:05:36.057Z,95.50
2019-02-27T06:08:04.856Z,95.30
2019-02-27T06:10:34.379Z,95.20
2019-02-27T06:13:04.069Z,95.20
2019-02-27T06:15:33.161Z,94.90
2019-02-27T06:18:01.940Z,95.30
2019-02-27T06:20:30.544Z,95.10
2019-02-27T06:22:59.206Z,94.70
2019-02-27T06:25:27.838Z,94.90
2019-02-27T06:27:56.476Z,95.10
2019-02-27T06:30:25.082Z,95.10
2019-02-27T06:32:53.738Z,95.00
2019-02-27T06:35:22.340Z,94.90
2019-02-27T06:37:51.448Z,94.70
2019-02-27T06:40:20.220Z,94.60
2019-02-27T06:42:53.438Z,94.80
2019-02-27T06:45:19.270Z,94.70
2019-02-27T06:47:47.921Z,95.00
2019-02-27T06:50:17.271Z,95.00
2019-02-27T06:52:45.992Z,95.00
2019-02-27T06:55:15.386Z,94.90
2019-02-27T06:57:44.208Z,94.80
2019-02-27T07:00:21.321Z,94.90
2019-02-27T07:02:49.966Z,95.10
2019-02-27T07:05:18.568Z,95.20
2019-02-27T07:07:47.216Z,95.40
2019-02-27T07:10:19.995Z,95.40
2019-02-27T07:12:47.918Z,95.30
2019-02-27T07:15:18.834Z,95.10
2019-02-27T07:17:47.651Z,95.10
2019-02-27T07:20:17.013Z,95.00
2019-02-27T07:22:46.652Z,95.10
2019-02-27T07:25:17.927Z,95.20
2019-02-27T07:27:46.533Z,95.10
2019-02-27T07:30:18.962Z,94.90
2019-02-27T07:32:47.609Z,95.00
2019-02-27T07:35:16.950Z,94.70
2019-02-27T07:37:48.010Z,94.30
2019-02-27T07:40:20.163Z,94.20
2019-02-27T07:42:48.783Z,94.30
2019-02-27T07:45:22.815Z,94.00
2019-02-27T07:47:51.551Z,94.20
2019-02-27T07:50:21.210Z,94.30
2019-02-27T07:52:51.919Z,94.40
2019-02-27T07:55:23.059Z,94.50
2019-02-27T07:57:50.738Z,94.30
2019-02-27T08:00:22.005Z,94.40
2019-02-27T08:02:51.077Z,94.40
2019-02-27T08:05:19.679Z,94.40
2019-02-27T08:07:49.067Z,94.40
2019-02-27T08:10:21.035Z,94.40
2019-02-27T08:12:49.688Z,94.50
2019-02-27T08:15:19.602Z,94.30
2019-02-27T08:17:48.658Z,94.70
2019-02-27T08:20:20.456Z,95.00
2019-02-27T08:22:49.579Z,95.10
2019-02-27T08:25:19.014Z,95.10
2019-02-27T08:27:47.839Z,95.10
2019-02-27T08:30:27.968Z,95.30
2019-02-27T08:32:56.580Z,95.10
2019-02-27T08:35:25.232Z,95.30
2019-02-27T08:38:02.255Z,95.20
2019-02-27T08:40:25.246Z,95.20
2019-02-27T08:42:54.175Z,95.10
2019-02-27T08:45:26.737Z,95.10
2019-02-27T08:47:55.733Z,95.30
2019-02-27T08:50:24.967Z,95.20
2019-02-27T08:52:53.581Z,95.20
2019-02-27T08:55:23.008Z,95.00
2019-02-27T08:57:55.854Z,94.80
2019-02-27T09:00:29.841Z,94.90
2019-02-27T09:03:02.456Z,94.60
2019-02-27T09:05:29.029Z,94.50
2019-02-27T09:07:57.680Z,94.40
2019-02-27T09:10:30.460Z,94.40
2019-02-27T09:13:04.956Z,94.20
2019-02-27T09:15:27.575Z,94.20
2019-02-27T09:17:56.231Z,94.10
2019-02-27T09:20:24.833Z,94.10
2019-02-27T09:22:53.492Z,93.90
2019-02-27T09:25:24.609Z,93.90
2019-02-27T09:27:52.473Z,93.40
2019-02-27T09:30:29.348Z,93.20
2019-02-27T09:32:57.800Z,93.20
2019-02-27T09:35:26.407Z,93.00
2019-02-27T09:37:55.068Z,93.00
2019-02-27T09:40:29.828Z,87.00
2019-02-27T09:42:58.793Z,82.60
2019-02-27T09:45:35.355Z,80.40
2019-02-27T09:48:04.847Z,78.80
2019-02-27T09:50:40.058Z,78.30
2019-02-27T09:53:08.881Z,74.30
2019-02-27T09:55:37.613Z,74.90
2019-02-27T09:58:11.115Z,72.50
2019-02-27T10:00:59.192Z,70.80
2019-02-27T10:03:24.928Z,69.90
2019-02-27T10:05:53.540Z,68.90
2019-02-27T10:08:25.288Z,68.40
2019-02-27T10:10:52.601Z,67.80
2019-02-27T10:13:21.254Z,67.50
2019-02-27T10:15:50.003Z,66.80
2019-02-27T10:18:21.881Z,67.90
2019-02-27T10:20:49.125Z,66.00
2019-02-27T10:23:18.051Z,65.80
2019-02-27T10:25:46.801Z,65.20
2019-02-27T10:28:15.421Z,66.10
2019-02-27T10:30:44.284Z,65.10
2019-02-27T10:33:13.030Z,64.40
2019-02-27T10:35:41.767Z,65.80
2019-02-27T10:38:10.384Z,65.40
2019-02-27T10:40:39.124Z,66.90
2019-02-27T10:43:07.777Z,65.80
2019-02-27T10:45:36.777Z,65.10
2019-02-27T10:48:05.436Z,65.40
2019-02-27T10:50:35.506Z,66.70
2019-02-27T10:53:04.478Z,65.20
2019-02-27T10:55:33.297Z,65.00
2019-02-27T10:58:02.274Z,65.50
2019-02-27T11:00:32.441Z,65.60
2019-02-27T11:03:02.058Z,64.90
2019-02-27T11:05:40.390Z,63.50
2019-02-27T11:08:09.006Z,64.70
2019-02-27T11:10:37.612Z,64.00
2019-02-27T11:13:07.087Z,63.50
2019-02-27T11:15:41.126Z,63.50
2019-02-27T11:18:06.437Z,62.60
2019-02-27T11:20:35.050Z,62.00
2019-02-27T11:23:06.457Z,61.40
2019-02-27T11:25:34.049Z,62.10
2019-02-27T11:28:02.705Z,62.50
2019-02-27T11:30:38.301Z,62.20
2019-02-27T11:33:07.141Z,61.40
2019-02-27T11:35:35.802Z,61.10
2019-02-27T11:38:04.460Z,61.30
2019-02-27T11:40:33.146Z,60.60
2019-02-27T11:43:06.577Z,60.20
2019-02-27T11:45:32.288Z,60.50
2019-02-27T11:48:00.901Z,59.50
2019-02-27T11:50:29.517Z,58.80
2019-02-27T11:53:01.797Z,58.70
2019-02-27T11:55:28.676Z,58.90
2019-02-27T11:57:57.351Z,57.70
2019-02-27T12:00:26.499Z,56.60
2019-02-27T12:02:55.973Z,55.20
2019-02-27T12:05:30.665Z,55.20
2019-02-27T12:07:56.431Z,55.00
2019-02-27T12:10:29.130Z,54.60
2019-02-27T12:13:00.707Z,54.60
2019-02-27T12:15:28.407Z,54.00
2019-02-27T12:17:59.941Z,54.00
2019-02-27T12:20:27.575Z,54.00
2019-02-27T12:22:56.183Z,54.10
2019-02-27T12:25:28.103Z,54.80
2019-02-27T12:27:55.179Z,54.40
2019-02-27T12:30:27.385Z,54.00
2019-02-27T12:32:57.052Z,52.70
2019-02-27T12:35:34.376Z,53.10
2019-02-27T12:38:06.830Z,53.50
2019-02-27T12:40:33.559Z,53.10
2019-02-27T12:43:02.294Z,52.50
2019-02-27T12:45:31.305Z,52.00
2019-02-27T12:48:00.027Z,53.00
2019-02-27T12:50:31.124Z,52.90
2019-02-27T12:53:00.209Z,51.90
2019-02-27T12:55:29.006Z,51.70
2019-02-27T12:57:57.661Z,51.50
2019-02-27T13:00:29.053Z,51.30
2019-02-27T13:02:59.130Z,51.20
2019-02-27T13:05:28.732Z,51.90
2019-02-27T13:07:57.562Z,49.50
2019-02-27T13:10:27.375Z,48.70
2019-02-27T13:12:56.042Z,48.80
2019-02-27T13:15:30.067Z,49.00
2019-02-27T13:17:58.954Z,49.30
2019-02-27T13:20:35.602Z,48.50
2019-02-27T13:23:05.332Z,48.70
2019-02-27T13:25:34.303Z,48.20
2019-02-27T13:28:02.925Z,46.30
2019-02-27T13:30:31.606Z,42.40
2019-02-27T13:33:01.279Z,42.20
2019-02-27T13:35:30.975Z,41.10
2019-02-27T13:37:59.645Z,41.10
2019-02-27T13:40:35.209Z,41.40
2019-02-27T13:43:01.257Z,40.90
2019-02-27T13:45:31.957Z,39.10
2019-02-27T13:48:04.645Z,39.80
2019-02-27T13:50:30.958Z,40.20
2019-02-27T13:52:59.637Z,41.00
2019-02-27T13:55:28.245Z,42.00
2019-02-27T13:57:59.210Z,41.50
2019-02-27T14:00:36.792Z,41.30
2019-02-27T14:03:05.668Z,40.80
2019-02-27T14:05:36.000Z,38.80
2019-02-27T14:08:05.105Z,38.60
2019-02-27T14:10:34.331Z,38.50
2019-02-27T14:13:02.947Z,38.50
2019-02-27T14:15:31.983Z,38.00
2019-02-27T14:18:00.669Z,39.10
2019-02-27T14:20:29.598Z,38.40
2019-02-27T14:22:58.385Z,38.40
2019-02-27T14:25:33.861Z,38.40
2019-02-27T14:28:02.542Z,38.10
2019-02-27T14:30:50.200Z,38.60
2019-02-27T14:33:19.562Z,37.40
2019-02-27T14:35:49.253Z,37.70
2019-02-27T14:38:17.869Z,37.10
2019-02-27T14:40:46.631Z,36.90
2019-02-27T14:43:15.291Z,34.80
2019-02-27T14:45:43.947Z,35.80
2019-02-27T14:48:12.607Z,34.30
2019-02-27T14:50:41.285Z,34.30
2019-02-27T14:53:09.943Z,32.90
2019-02-27T14:55:38.681Z,30.10
2019-02-27T14:58:07.364Z,28.40
2019-02-27T15:00:40.848Z,27.60
2019-02-27T15:03:07.967Z,27.30
2019-02-27T15:05:37.105Z,27.00
2019-02-27T15:08:06.963Z,27.00
2019-02-27T15:10:40.175Z,26.10
2019-02-27T15:13:06.011Z,26.00
2019-02-27T15:15:34.690Z,26.40
2019-02-27T15:18:03.818Z,25.50
2019-02-27T15:20:34.409Z,25.10
2019-02-27T15:23:02.771Z,25.10
2019-02-27T15:25:31.431Z,25.10
2019-02-27T15:28:00.088Z,25.70
2019-02-27T15:30:31.955Z,26.70
2019-02-27T15:33:03.856Z,28.80
2019-02-27T15:35:31.165Z,30.20
2019-02-27T15:37:59.883Z,30.70
2019-02-27T15:40:31.752Z,31.30
2019-02-27T15:43:00.477Z,32.50
2019-02-27T15:45:29.454Z,32.80
2019-02-27T15:47:58.134Z,33.70
2019-02-27T15:50:34.709Z,33.90
2019-02-27T15:53:03.701Z,34.20
2019-02-27T15:55:34.373Z,34.60
2019-02-27T15:58:02.792Z,35.10
2019-02-27T16:00:31.570Z,35.00
2019-02-27T16:03:00.187Z,36.10
2019-02-27T16:05:31.216Z,36.60
2019-02-27T16:07:59.518Z,37.60
2019-02-27T16:10:28.973Z,37.30
2019-02-27T16:13:00.895Z,37.80
2019-02-27T16:15:28.052Z,38.80
2019-02-27T16:17:56.706Z,40.90
2019-02-27T16:20:26.922Z,41.40
2019-02-27T16:22:55.578Z,41.50
2019-02-27T16:25:26.095Z,44.20
2019-02-27T16:27:54.820Z,42.20
2019-02-27T16:30:34.170Z,43.10
2019-02-27T16:33:02.829Z,42.90
2019-02-27T16:35:31.636Z,44.80
2019-02-27T16:38:00.352Z,45.30
2019-02-27T16:40:30.278Z,47.80
2019-02-27T16:42:58.959Z,49.90
2019-02-27T16:45:36.674Z,50.00
2019-02-27T16:48:04.335Z,49.40
2019-02-27T16:50:32.947Z,52.60
2019-02-27T16:53:01.547Z,52.80
2019-02-27T16:55:35.685Z,53.70
2019-02-27T16:58:02.005Z,52.90
2019-02-27T17:00:37.255Z,53.70
2019-02-27T17:03:05.863Z,55.30
2019-02-27T17:05:34.520Z,56.30
2019-02-27T17:08:03.192Z,57.20
2019-02-27T17:10:34.257Z,59.60
2019-02-27T17:13:02.939Z,59.80
2019-02-27T17:15:34.661Z,60.70
2019-02-27T17:18:01.927Z,60.90
2019-02-27T17:20:30.582Z,62.20
2019-02-27T17:22:59.186Z,62.30
2019-02-27T17:25:29.888Z,63.80
2019-02-27T17:27:58.182Z,63.80
2019-02-27T17:30:36.671Z,64.40
2019-02-27T17:33:04.089Z,63.70
2019-02-27T17:35:33.831Z,62.60
2019-02-27T17:38:03.184Z,62.90
2019-02-27T17:40:36.511Z,62.80
2019-02-27T17:43:02.330Z,64.10
2019-02-27T17:45:31.001Z,63.60
2019-02-27T17:47:59.657Z,64.80
2019-02-27T17:50:30.960Z,65.10
2019-02-27T17:52:58.657Z,63.90
2019-02-27T17:55:27.314Z,62.60
2019-02-27T17:57:58.446Z,63.80
2019-02-27T18:00:30.677Z,63.50
2019-02-27T18:02:59.342Z,64.60
2019-02-27T18:05:28.086Z,64.30
2019-02-27T18:07:56.688Z,66.20
2019-02-27T18:10:25.341Z,66.90
2019-02-27T18:13:01.400Z,67.60
2019-02-27T18:15:32.165Z,68.50
2019-02-27T18:18:02.303Z,68.50
2019-02-27T18:20:34.761Z,70.00
2019-02-27T18:23:06.931Z,70.40
2019-02-27T18:25:45.119Z,70.10
2019-02-27T18:28:14.442Z,71.10
2019-02-27T18:30:45.425Z,71.50
2019-02-27T18:33:17.334Z,71.80
2019-02-27T18:35:45.568Z,71.80
2019-02-27T18:38:14.340Z,72.80
2019-02-27T18:40:43.659Z,72.90
2019-02-27T18:43:12.380Z,73.50
2019-02-27T18:45:41.060Z,73.90
2019-02-27T18:48:10.043Z,74.60
2019-02-27T18:50:39.458Z,74.70
2019-02-27T18:53:12.931Z,72.30
2019-02-27T18:55:38.450Z,71.90
2019-02-27T18:58:07.119Z,72.00
2019-02-27T19:00:36.851Z,70.90
2019-02-27T19:03:11.734Z,71.30
2019-02-27T19:05:42.126Z,68.90
2019-02-27T19:08:10.790Z,64.70
2019-02-27T19:10:42.387Z,63.00
2019-02-27T19:13:10.587Z,63.10
2019-02-27T19:15:39.313Z,61.50
2019-02-27T19:18:07.941Z,57.20
2019-02-27T19:20:47.241Z,55.00
2019-02-27T19:23:17.634Z,54.50
2019-02-27T19:25:46.532Z,52.30
2019-02-27T19:28:15.205Z,51.20
2019-02-27T19:30:44.141Z,47.00
2019-02-27T19:33:13.063Z,46.70
2019-02-27T19:35:41.741Z,46.70
2019-02-27T19:38:12.898Z,45.70
2019-02-27T19:40:41.240Z,44.20
2019-02-27T19:43:10.085Z,44.30
2019-02-27T19:45:38.816Z,45.20
2019-02-27T19:48:07.542Z,44.90
2019-02-27T19:50:36.290Z,45.80
2019-02-27T19:53:06.974Z,44.10
2019-02-27T19:55:35.385Z,44.90
2019-02-27T19:58:04.155Z,43.80
2019-02-27T20:00:35.116Z,44.70
2019-02-27T20:03:04.548Z,43.90
2019-02-27T20:05:33.202Z,44.10
2019-02-27T20:08:02.565Z,43.40
2019-02-27T20:10:33.296Z,43.90
2019-02-27T20:13:02.257Z,43.70
2019-02-27T20:15:31.186Z,43.00
2019-02-27T20:17:59.795Z,43.60
2019-02-27T20:20:30.088Z,43.80
2019-02-27T20:22:59.041Z,44.40
2019-02-27T20:25:30.653Z,44.00
2019-02-27T20:27:59.473Z,44.10
2019-02-27T20:30:28.132Z,43.80
2019-02-27T20:32:59.821Z,44.20
2019-02-27T20:35:27.362Z,45.10
2019-02-27T20:37:56.281Z,44.90
2019-02-27T20:40:24.945Z,46.30
2019-02-27T20:42:55.080Z,47.10
2019-02-27T20:45:26.681Z,47.40
2019-02-27T20:48:00.564Z,47.70
2019-02-27T20:50:42.570Z,47.80
2019-02-27T20:53:13.850Z,47.30
2019-02-27T20:55:42.510Z,47.30
2019-02-27T20:58:16.158Z,47.90
2019-02-27T21:00:41.512Z,47.40
2019-02-27T21:03:10.118Z,46.70
2019-02-27T21:05:41.094Z,46.20
2019-02-27T21:08:09.464Z,45.70
2019-02-27T21:10:38.131Z,45.30
2019-02-27T21:13:06.811Z,45.70
2019-02-27T21:15:35.493Z,46.20
2019-02-27T21:18:04.150Z,45.40
2019-02-27T21:20:33.320Z,44.20
2019-02-27T21:23:02.195Z,44.60
2019-02-27T21:25:30.908Z,44.40
2019-02-27T21:27:59.587Z,45.60
2019-02-27T21:30:28.251Z,45.50
2019-02-27T21:32:56.862Z,45.20
2019-02-27T21:35:28.835Z,45.40
2019-02-27T21:37:55.903Z,45.40
2019-02-27T21:40:24.562Z,44.80
2019-02-27T21:42:53.173Z,44.10
2019-02-27T21:45:23.342Z,43.50
2019-02-27T21:47:52.940Z,43.30
2019-02-27T21:50:26.531Z,44.90
2019-02-27T21:52:55.805Z,44.90
2019-02-27T21:55:24.964Z,44.80
2019-02-27T21:57:53.702Z,44.70
2019-02-27T22:00:25.088Z,45.30
2019-02-27T22:03:04.052Z,45.70
2019-02-27T22:05:29.056Z,45.30
2019-02-27T22:07:57.783Z,45.30
2019-02-27T22:10:26.391Z,45.20
2019-02-27T22:12:55.052Z,45.30
2019-02-27T22:15:30.373Z,45.60
2019-02-27T22:17:59.229Z,45.80
2019-02-27T22:20:27.838Z,45.90
2019-02-27T22:22:56.658Z,45.20
2019-02-27T22:25:30.142Z,46.00
2019-02-27T22:27:55.729Z,46.10
2019-02-27T22:30:24.460Z,46.00
2019-02-27T22:32:53.069Z,46.80
2019-02-27T22:35:21.736Z,46.70
2019-02-27T22:37:52.489Z,46.80
2019-02-27T22:40:24.813Z,47.30
2019-02-27T22:42:53.493Z,47.00
2019-02-27T22:45:22.149Z,46.90
2019-02-27T22:47:54.004Z,47.30
2019-02-27T22:50:21.869Z,47.80
2019-02-27T22:52:54.147Z,48.40
2019-02-27T22:55:20.942Z,48.40
2019-02-27T22:57:49.736Z,48.70
2019-02-27T23:00:38.181Z,49.00
2019-02-27T23:03:06.914Z,49.80
2019-02-27T23:05:38.167Z,50.50
2019-02-27T23:08:06.067Z,50.90
2019-02-27T23:10:34.847Z,51.50
2019-02-27T23:13:03.673Z,51.90
2019-02-27T23:15:32.393Z,52.60
2019-02-27T23:18:02.596Z,52.40
2019-02-27T23:20:32.756Z,53.50
2019-02-27T23:23:02.654Z,53.00
2019-02-27T23:25:31.814Z,53.20
2019-02-27T23:28:00.948Z,53.30
2019-02-27T23:30:30.618Z,53.10
2019-02-27T23:32:59.395Z,53.40
2019-02-27T23:35:29.568Z,53.60
2019-02-27T23:38:02.937Z,53.90
2019-02-27T23:40:28.561Z,53.70
2019-02-27T23:43:02.400Z,52.90
2019-02-27T23:45:27.713Z,53.00
2019-02-27T23:47:56.381Z,52.80
2019-02-27T23:50:24.984Z,52.50
2019-02-27T23:52:53.972Z,52.50
2019-02-27T23:55:22.734Z,52.40
2019-02-27T23:57:51.392Z,51.90
